Time;durP1;ratioP1;P1;durP2;ratioP2;P2;SDS_P1;SDS_P2;PMS_P1;PMS_P2;Temp;Humidity;BMP_temperature;BMP_pressure;BME280_temperature;BME280_humidity;BME280_pressure;Samples;Min_cycle;Max_cycle;Signal;HPM_P1;HPM_P2
2023/04/13 00:01:10;;;;;;;26.35;16.80;;;9.90;99.90;;;;;;4920256;29;20024;-93
2023/04/13 00:03:37;;;;;;;28.15;17.15;;;9.90;99.90;;;;;;4919858;29;20106;-92
2023/04/13 00:06:04;;;;;;;24.88;16.23;;;9.90;99.90;;;;;;4920890;29;20035;-92
2023/04/13 00:08:34;;;;;;;24.88;16.05;;;9.80;99.90;;;;;;4919874;29;20148;-92
2023/04/13 00:11:06;;;;;;;23.50;16.70;;;9.80;99.90;;;;;;4920088;29;20477;-93
2023/04/13 00:13:39;;;;;;;25.40;15.40;;;9.80;99.90;;;;;;4920011;29;20490;-92
2023/04/13 00:16:08;;;;;;;22.52;15.77;;;9.80;99.90;;;;;;4917933;29;20474;-92
2023/04/13 00:18:35;;;;;;;26.25;16.02;;;9.70;99.90;;;;;;4920029;29;20489;-93
2023/04/13 00:21:02;;;;;;;28.52;16.23;;;9.70;99.90;;;;;;4919633;29;20032;-93
2023/04/13 00:23:28;;;;;;;22.00;16.20;;;9.60;99.90;;;;;;4919641;29;20401;-91
2023/04/13 00:25:55;;;;;;;21.45;14.75;;;9.60;99.90;;;;;;4919748;29;20070;-92
2023/04/13 00:28:23;;;;;;;22.98;15.13;;;9.50;99.90;;;;;;4919847;29;20023;-93
2023/04/13 00:30:51;;;;;;;24.70;15.35;;;9.60;99.90;;;;;;4936013;29;20469;-91
2023/04/13 00:33:18;;;;;;;20.75;15.18;;;9.60;99.90;;;;;;4919842;29;20038;-92
2023/04/13 00:35:44;;;;;;;24.27;15.43;;;9.60;99.90;;;;;;4917989;29;20027;-93
2023/04/13 00:38:10;;;;;;;23.83;15.73;;;9.60;99.90;;;;;;4919751;29;20194;-92
2023/04/13 00:40:37;;;;;;;23.40;14.77;;;9.60;99.90;;;;;;4935507;29;20087;-93
2023/04/13 00:43:04;;;;;;;27.52;16.00;;;9.60;99.90;;;;;;4919917;29;20481;-92
2023/04/13 00:45:38;;;;;;;24.27;15.20;;;9.60;99.90;;;;;;4939039;29;20049;-91
2023/04/13 00:48:09;;;;;;;21.65;15.77;;;9.60;99.90;;;;;;4939013;29;20075;-93
2023/04/13 00:50:36;;;;;;;22.13;15.80;;;9.60;99.90;;;;;;4939320;29;20036;-94
2023/04/13 00:53:06;;;;;;;21.27;14.40;;;9.50;99.90;;;;;;4938876;29;20071;-93
2023/04/13 00:55:37;;;;;;;31.25;15.85;;;9.50;99.90;;;;;;4938759;29;20036;-92
2023/04/13 00:58:04;;;;;;;21.50;14.68;;;9.40;99.90;;;;;;4922924;29;20027;-92
2023/04/13 01:00:30;;;;;;;27.70;15.57;;;9.40;99.90;;;;;;4923149;29;20067;-93
2023/04/13 01:03:00;;;;;;;22.17;15.00;;;9.40;99.90;;;;;;4922662;29;20115;-92
2023/04/13 01:05:39;;;;;;;23.75;16.13;;;9.40;99.90;;;;;;4924813;29;20457;-92
2023/04/13 01:08:40;;;;;;;25.25;15.45;;;9.40;99.90;;;;;;4922569;29;20028;-93
2023/04/13 01:11:17;;;;;;;23.23;15.15;;;9.40;99.90;;;;;;4884712;29;20080;-90
2023/04/13 01:13:54;;;;;;;22.80;14.68;;;9.30;99.90;;;;;;4884480;29;20037;-92
2023/04/13 01:16:29;;;;;;;22.17;14.98;;;9.30;99.90;;;;;;4899766;29;20538;-92
2023/04/13 01:18:58;;;;;;;20.83;14.95;;;9.30;99.90;;;;;;4899762;29;20060;-94
2023/04/13 01:21:28;;;;;;;22.08;14.02;;;9.30;99.90;;;;;;4899772;29;20067;-91
2023/04/13 01:24:16;;;;;;;28.08;15.25;;;9.30;99.90;;;;;;4899791;29;20047;-94
2023/04/13 01:27:10;;;;;;;21.80;14.23;;;9.30;99.90;;;;;;4899603;29;20039;-94
2023/04/13 01:29:38;;;;;;;28.60;15.23;;;9.30;99.90;;;;;;4882122;29;20040;-91
2023/04/13 01:32:07;;;;;;;26.55;14.98;;;9.20;99.90;;;;;;4899515;29;20020;-92
2023/04/13 01:34:35;;;;;;;17.70;13.45;;;9.20;99.90;;;;;;4884121;29;20041;-92
2023/04/13 01:37:03;;;;;;;24.35;14.02;;;9.20;99.90;;;;;;4899512;29;20112;-92
2023/04/13 01:39:32;;;;;;;22.85;13.95;;;9.20;99.90;;;;;;4899725;29;20128;-92
2023/04/13 01:42:05;;;;;;;22.35;14.70;;;9.10;99.90;;;;;;4898578;29;20040;-92
2023/04/13 01:44:33;;;;;;;20.55;14.57;;;9.10;99.90;;;;;;4895609;29;20061;-91
2023/04/13 01:47:14;;;;;;;22.90;14.57;;;9.10;99.90;;;;;;4883941;29;20025;-91
2023/04/13 01:50:07;;;;;;;20.40;13.45;;;9.10;99.90;;;;;;4936310;29;20027;-91
2023/04/13 01:53:07;;;;;;;23.48;13.85;;;9.00;99.90;;;;;;4934927;29;20031;-92
2023/04/13 01:55:38;;;;;;;20.40;14.05;;;9.00;99.90;;;;;;4936642;29;20397;-93
2023/04/13 01:58:07;;;;;;;22.13;13.32;;;9.10;99.90;;;;;;4937937;29;20043;-93
2023/04/13 02:00:37;;;;;;;20.27;14.15;;;9.10;99.90;;;;;;4937560;29;20058;-92
2023/04/13 02:03:09;;;;;;;21.52;13.85;;;9.00;99.90;;;;;;4936885;29;20024;-92
2023/04/13 02:05:41;;;;;;;20.83;13.52;;;9.00;99.90;;;;;;4920516;29;20040;-93
2023/04/13 02:08:09;;;;;;;22.05;14.27;;;9.00;99.90;;;;;;4937946;29;20031;-91
2023/04/13 02:10:47;;;;;;;18.67;12.52;;;9.00;99.90;;;;;;4936717;29;20039;-92
2023/04/13 02:13:18;;;;;;;21.73;13.63;;;9.00;99.90;;;;;;4937410;29;20027;-93
2023/04/13 02:15:52;;;;;;;20.33;12.65;;;8.90;99.90;;;;;;4936569;29;20476;-93
2023/04/13 02:18:18;;;;;;;21.45;13.75;;;8.90;99.90;;;;;;4937358;29;20032;-94
2023/04/13 02:20:45;;;;;;;17.85;12.23;;;8.90;99.90;;;;;;4937891;29;20478;-93
2023/04/13 02:23:16;;;;;;;22.08;12.93;;;8.90;99.90;;;;;;4923521;28;20023;-93
2023/04/13 02:25:45;;;;;;;20.02;13.63;;;8.90;99.90;;;;;;4961599;28;20024;-93
2023/04/13 02:28:12;;;;;;;20.75;13.45;;;8.80;99.90;;;;;;4961739;28;20016;-94
2023/04/13 02:30:39;;;;;;;21.65;13.88;;;8.80;99.90;;;;;;4946641;29;20040;-93
2023/04/13 02:33:08;;;;;;;19.10;13.63;;;8.80;99.90;;;;;;4937457;29;20090;-93
2023/04/13 02:35:37;;;;;;;18.88;12.23;;;8.80;99.90;;;;;;4937633;29;20418;-93
2023/04/13 02:38:08;;;;;;;19.70;12.32;;;8.80;99.90;;;;;;4937317;29;20078;-93
2023/04/13 02:40:37;;;;;;;17.98;12.27;;;8.70;99.90;;;;;;4937171;29;20059;-93
2023/04/13 02:43:06;;;;;;;21.60;13.50;;;8.70;99.90;;;;;;4936757;29;20028;-92
2023/04/13 02:45:37;;;;;;;24.08;13.18;;;8.70;99.90;;;;;;4906175;29;20489;-93
2023/04/13 02:48:12;;;;;;;20.98;12.77;;;8.70;99.90;;;;;;4936855;29;20478;-93
2023/04/13 02:50:40;;;;;;;18.48;12.38;;;8.70;99.90;;;;;;4917042;29;20044;-92
2023/04/13 02:53:14;;;;;;;22.05;12.68;;;8.70;99.90;;;;;;4901510;29;20525;-93
2023/04/13 02:55:49;;;;;;;19.70;12.63;;;8.70;99.90;;;;;;4916826;29;20228;-92
2023/04/13 02:58:16;;;;;;;23.08;13.35;;;8.70;99.90;;;;;;4901176;29;20121;-92
2023/04/13 03:00:47;;;;;;;24.58;13.32;;;8.80;99.90;;;;;;4899766;29;20221;-93
2023/04/13 03:03:17;;;;;;;20.27;12.75;;;8.80;99.90;;;;;;4886851;29;20032;-92
2023/04/13 03:05:50;;;;;;;21.67;12.45;;;8.80;99.90;;;;;;4901333;29;20032;-92
2023/04/13 03:08:20;;;;;;;22.25;12.50;;;8.80;99.90;;;;;;4901635;29;20085;-92
2023/04/13 03:11:07;;;;;;;21.55;13.02;;;8.80;99.90;;;;;;4903487;29;20050;-92
2023/04/13 03:13:34;;;;;;;18.35;12.05;;;8.80;99.90;;;;;;4901262;29;20035;-91
2023/04/13 03:16:01;;;;;;;23.98;12.95;;;8.80;99.90;;;;;;4889696;29;20040;-92
2023/04/13 03:18:29;;;;;;;23.13;12.52;;;8.80;99.90;;;;;;4916928;29;20046;-93
2023/04/13 03:20:55;;;;;;;22.95;12.15;;;8.80;99.90;;;;;;4900920;29;20040;-93
2023/04/13 03:23:26;;;;;;;22.17;12.18;;;8.80;99.90;;;;;;4900779;29;20032;-92
2023/04/13 03:25:53;;;;;;;18.25;11.20;;;8.90;99.90;;;;;;4916559;29;20035;-92
2023/04/13 03:28:22;;;;;;;17.40;11.85;;;8.90;99.90;;;;;;4905231;29;20046;-92
2023/04/13 03:30:51;;;;;;;21.52;11.95;;;8.80;99.90;;;;;;4935762;29;20035;-91
2023/04/13 03:33:18;;;;;;;15.60;10.82;;;8.80;99.90;;;;;;4920232;29;20445;-93
2023/04/13 03:35:45;;;;;;;21.58;11.32;;;8.90;99.90;;;;;;4935883;29;20038;-91
2023/04/13 03:38:23;;;;;;;16.90;10.60;;;8.90;99.90;;;;;;4920406;29;20496;-93
2023/04/13 03:40:54;;;;;;;16.73;10.90;;;8.90;99.90;;;;;;4935711;29;20031;-92
2023/04/13 03:43:21;;;;;;;17.80;10.23;;;8.90;99.90;;;;;;4935963;29;20481;-92
2023/04/13 03:45:59;;;;;;;50.33;14.50;;;9.10;99.90;;;;;;4920400;29;20035;-94
2023/04/13 03:48:26;;;;;;;81.93;18.27;;;9.30;99.90;;;;;;4920133;29;20122;-92
2023/04/13 03:50:53;;;;;;;94.65;17.23;;;9.40;99.90;;;;;;4920171;29;20043;-93
2023/04/13 03:53:25;;;;;;;95.38;19.52;;;9.60;99.90;;;;;;4920115;29;20031;-92
2023/04/13 03:55:55;;;;;;;104.45;19.45;;;9.70;99.90;;;;;;4935461;29;20035;-91
2023/04/13 03:58:21;;;;;;;73.72;19.58;;;9.80;99.90;;;;;;4920024;29;20024;-92
2023/04/13 04:00:48;;;;;;;142.50;22.85;;;9.80;99.90;;;;;;4935935;29;20149;-91
2023/04/13 04:03:26;;;;;;;83.80;19.55;;;9.90;99.90;;;;;;4919898;29;20028;-90
2023/04/13 04:05:56;;;;;;;65.18;18.85;;;10.00;99.90;;;;;;4935163;29;20430;-91
2023/04/13 04:08:27;;;;;;;49.85;18.00;;;10.00;99.90;;;;;;4920177;29;20031;-91
2023/04/13 04:10:57;;;;;;;72.70;20.23;;;10.00;99.90;;;;;;4935345;29;20042;-91
2023/04/13 04:13:26;;;;;;;68.32;20.23;;;10.10;99.90;;;;;;4935270;29;20036;-91
2023/04/13 04:31:16;;;;;;;45.65;21.25;;;10.40;99.90;;;;;;4937547;29;20957;-91
2023/04/13 04:33:46;;;;;;;50.58;24.05;;;10.60;99.90;;;;;;4938721;29;20515;-91
2023/04/13 04:36:15;;;;;;;52.13;23.00;;;10.60;99.90;;;;;;4938783;29;20493;-91
2023/04/13 04:39:00;;;;;;;41.80;21.60;;;10.70;99.90;;;;;;4937644;29;20024;-91
2023/04/13 04:41:36;;;;;;;55.15;24.95;;;10.80;99.90;;;;;;4939310;29;20031;-92
2023/04/13 04:44:07;;;;;;;56.38;23.15;;;11.00;99.90;;;;;;4938712;29;20031;-93
2023/04/13 04:46:40;;;;;;;48.92;23.33;;;11.10;99.90;;;;;;4923227;29;20438;-93
2023/04/13 04:49:10;;;;;;;48.42;24.45;;;11.30;99.90;;;;;;4938529;29;20030;-92
2023/04/13 04:51:38;;;;;;;48.53;23.00;;;11.50;99.90;;;;;;4954985;29;20036;-92
2023/04/13 04:54:06;;;;;;;42.53;22.33;;;11.80;99.90;;;;;;4939162;29;20538;-93
2023/04/13 04:56:32;;;;;;;33.10;18.70;;;12.00;99.90;;;;;;4944068;29;20119;-92
2023/04/13 04:58:59;;;;;;;32.67;16.65;;;12.30;99.90;;;;;;4945500;29;20075;-93
2023/04/13 05:01:35;;;;;;;34.35;14.88;;;12.70;99.90;;;;;;4953332;29;20034;-93
2023/04/13 05:04:08;;;;;;;35.83;14.43;;;13.10;99.90;;;;;;4946079;28;20485;-93
2023/04/13 05:06:40;;;;;;;29.88;15.40;;;13.20;99.90;;;;;;4938057;29;20035;-94
2023/04/13 05:09:09;;;;;;;28.38;15.00;;;13.30;99.90;;;;;;4922833;29;20040;-92
2023/04/13 05:11:38;;;;;;;42.05;15.48;;;13.30;99.90;;;;;;4922547;29;20023;-91
2023/04/13 05:14:07;;;;;;;34.80;16.77;;;13.60;99.90;;;;;;4942014;29;20023;-93
2023/04/13 05:16:33;;;;;;;33.92;15.35;;;13.60;99.90;;;;;;4946236;29;20032;-93
2023/04/13 08:04:52;;;;;;;19.13;17.25;;;20.20;99.90;;;;;;5716022;23;20074;-92
2023/04/13 08:07:24;;;;;;;18.98;17.02;;;19.80;99.90;;;;;;4958082;28;20539;-92
2023/04/13 08:09:51;;;;;;;17.65;16.35;;;19.30;99.90;;;;;;4942347;28;20439;-94
2023/04/13 08:12:18;;;;;;;18.05;16.27;;;19.50;99.90;;;;;;4958046;28;20031;-91
2023/04/13 08:14:46;;;;;;;18.73;16.45;;;20.00;99.90;;;;;;4938662;29;20030;-92
2023/04/13 08:17:13;;;;;;;17.85;16.38;;;20.10;99.90;;;;;;4954778;29;20122;-91
2023/04/13 08:19:40;;;;;;;18.27;16.38;;;20.00;99.90;;;;;;4955040;29;20485;-91
2023/04/13 08:22:10;;;;;;;18.15;16.42;;;20.00;99.90;;;;;;4954569;29;20046;-92
2023/04/13 08:24:37;;;;;;;18.50;16.73;;;20.40;99.90;;;;;;4957665;28;20034;-90
2023/04/13 08:27:06;;;;;;;18.58;16.73;;;20.50;99.90;;;;;;4942288;28;20027;-92
2023/04/13 08:29:33;;;;;;;18.38;16.83;;;20.60;99.90;;;;;;4942365;28;20035;-93
2023/04/13 08:32:00;;;;;;;19.15;17.20;;;20.30;99.90;;;;;;4942206;28;20034;-93
2023/04/13 08:34:28;;;;;;;18.13;16.55;;;20.20;99.90;;;;;;4942395;28;20031;-93
2023/04/13 08:36:56;;;;;;;18.67;17.15;;;19.90;99.90;;;;;;4942111;28;20027;-92
2023/04/13 08:39:26;;;;;;;18.92;17.27;;;19.70;99.90;;;;;;4943016;28;20042;-92
2023/04/13 08:41:54;;;;;;;19.02;17.27;;;20.50;99.90;;;;;;4942131;28;20027;-92
2023/04/13 08:44:23;;;;;;;19.25;17.35;;;20.90;99.90;;;;;;4942240;28;20047;-91
2023/04/13 08:46:51;;;;;;;19.35;17.88;;;20.90;99.90;;;;;;4942260;28;20027;-93
2023/04/13 08:49:23;;;;;;;17.83;16.73;;;20.60;99.90;;;;;;4942524;28;20096;-92
2023/04/13 08:52:27;;;;;;;19.10;17.58;;;20.30;99.90;;;;;;4897376;29;20140;-92
2023/04/13 08:55:04;;;;;;;19.27;17.52;;;20.00;99.90;;;;;;4881361;29;20502;-92
2023/04/13 08:57:33;;;;;;;18.80;17.15;;;20.10;99.90;;;;;;4881764;29;20052;-91
2023/04/13 09:00:06;;;;;;;19.80;17.33;;;19.90;99.90;;;;;;4881490;29;20040;-92
2023/04/13 09:02:37;;;;;;;19.58;17.35;;;19.70;99.90;;;;;;4881275;29;20417;-92
2023/04/13 09:05:14;;;;;;;19.52;17.40;;;19.90;99.90;;;;;;4884853;29;20064;-92
2023/04/13 09:07:52;;;;;;;18.83;17.00;;;20.10;99.90;;;;;;4885100;29;20064;-91
2023/04/13 09:10:20;;;;;;;18.15;16.75;;;19.80;99.90;;;;;;4884598;29;20042;-91
2023/04/13 09:12:49;;;;;;;22.27;17.10;;;20.10;99.90;;;;;;4884896;29;20145;-93
2023/04/13 09:15:17;;;;;;;18.50;16.80;;;20.20;99.90;;;;;;4900469;29;20108;-92
2023/04/13 09:17:53;;;;;;;18.63;16.52;;;19.90;99.90;;;;;;4885829;29;20059;-92
2023/04/13 09:20:23;;;;;;;19.23;17.33;;;20.10;99.90;;;;;;4884726;29;20037;-91
2023/04/13 09:22:50;;;;;;;19.40;17.65;;;19.80;99.90;;;;;;4884464;29;20032;-93
2023/04/13 09:25:26;;;;;;;19.40;17.55;;;19.30;99.90;;;;;;4886112;29;20617;-94
2023/04/13 09:27:53;;;;;;;20.83;18.58;;;19.00;99.90;;;;;;4922245;29;20056;-93
2023/04/13 09:30:26;;;;;;;20.13;18.23;;;19.10;99.90;;;;;;4922669;29;20043;-92
2023/04/13 09:33:06;;;;;;;20.02;18.15;;;19.20;99.90;;;;;;4922550;29;20027;-94
2023/04/13 09:35:34;;;;;;;19.20;17.35;;;19.20;99.90;;;;;;4922723;29;20043;-92
2023/04/13 09:38:00;;;;;;;19.10;17.55;;;19.40;99.90;;;;;;4922758;29;20051;-91
2023/04/13 09:40:27;;;;;;;19.63;17.88;;;19.30;99.90;;;;;;4922441;29;20115;-92
2023/04/13 09:42:59;;;;;;;20.45;18.33;;;19.40;99.90;;;;;;4922370;29;20253;-93
2023/04/13 09:45:37;;;;;;;19.13;17.33;;;19.70;99.90;;;;;;4922258;29;20039;-93
2023/04/13 09:48:06;;;;;;;21.25;17.90;;;19.60;99.90;;;;;;4922848;29;20493;-93
2023/04/13 09:50:35;;;;;;;19.10;17.45;;;19.20;99.90;;;;;;4939760;29;20050;-92
2023/04/13 09:53:06;;;;;;;19.20;17.60;;;19.30;99.90;;;;;;4924634;29;20043;-94
2023/04/13 09:55:34;;;;;;;18.67;16.83;;;19.30;99.90;;;;;;4922141;29;20032;-95
2023/04/13 09:58:16;;;;;;;20.33;17.58;;;19.20;99.90;;;;;;4921862;29;20063;-92
2023/04/13 10:00:48;;;;;;;21.25;17.65;;;19.40;99.90;;;;;;4922049;29;20401;-92
2023/04/13 10:03:17;;;;;;;19.80;18.05;;;19.40;99.90;;;;;;4922654;29;20083;-93
2023/04/13 10:05:44;;;;;;;20.10;18.23;;;19.20;99.90;;;;;;4934452;29;20090;-92
2023/04/13 10:08:11;;;;;;;20.42;18.33;;;18.90;99.90;;;;;;4940998;29;20027;-91
2023/04/13 10:10:38;;;;;;;19.33;17.60;;;18.90;99.90;;;;;;4941071;29;20113;-92
2023/04/13 10:13:25;;;;;;;19.48;17.60;;;18.90;99.90;;;;;;4940840;29;20034;-93
2023/04/13 10:16:19;;;;;;;20.33;18.40;;;19.00;99.90;;;;;;4939965;29;20058;-93
2023/04/13 10:19:12;;;;;;;20.00;18.23;;;19.00;99.90;;;;;;4940516;29;20055;-92
2023/04/13 10:21:49;;;;;;;20.08;17.63;;;19.40;99.90;;;;;;4940703;29;20507;-92
2023/04/13 10:24:18;;;;;;;19.17;17.50;;;19.40;99.90;;;;;;4940637;29;20463;-91
2023/04/13 10:26:44;;;;;;;19.67;17.55;;;19.10;99.90;;;;;;4940426;29;20085;-91
2023/04/13 10:29:13;;;;;;;23.73;18.30;;;19.10;99.90;;;;;;4940351;29;20126;-92
2023/04/13 10:31:51;;;;;;;21.75;17.60;;;19.10;99.90;;;;;;4940486;29;20031;-91
2023/04/13 10:34:31;;;;;;;21.05;17.88;;;19.30;99.90;;;;;;4940239;29;20034;-92
2023/04/13 10:37:02;;;;;;;19.35;17.40;;;19.30;99.90;;;;;;4940416;29;20488;-94
2023/04/13 10:39:37;;;;;;;23.90;17.30;;;19.30;99.90;;;;;;4940516;29;20086;-93
2023/04/13 10:42:06;;;;;;;20.10;17.73;;;19.00;99.90;;;;;;4940233;29;20043;-91
2023/04/13 10:44:46;;;;;;;21.08;17.77;;;18.90;99.90;;;;;;4940367;29;20039;-91
2023/04/13 10:47:16;;;;;;;21.85;18.20;;;18.70;99.90;;;;;;4940280;29;20023;-92
2023/04/13 10:49:46;;;;;;;24.65;17.65;;;19.00;99.90;;;;;;4940068;29;20038;-92
2023/04/13 10:52:13;;;;;;;18.95;17.25;;;19.30;99.90;;;;;;4939734;29;20432;-92
2023/04/13 10:54:41;;;;;;;23.75;17.95;;;18.90;99.90;;;;;;4941011;28;20031;-90
2023/04/13 10:57:10;;;;;;;20.98;16.70;;;18.60;99.90;;;;;;4943311;28;20026;-92
2023/04/13 10:59:55;;;;;;;20.35;15.98;;;18.30;99.90;;;;;;4942986;28;20127;-91
2023/04/13 11:02:31;;;;;;;26.30;15.95;;;18.30;99.90;;;;;;4943975;29;20094;-93
2023/04/13 11:04:58;;;;;;;24.58;16.33;;;18.70;99.90;;;;;;4962134;28;20043;-89
2023/04/13 11:07:25;;;;;;;25.20;16.70;;;18.60;99.90;;;;;;4944968;28;20026;-91
2023/04/13 11:09:58;;;;;;;20.42;15.98;;;18.70;99.90;;;;;;4945307;28;20039;-90
2023/04/13 11:12:25;;;;;;;21.65;16.20;;;18.60;99.90;;;;;;4945071;28;20034;-91
2023/04/13 11:14:51;;;;;;;20.50;16.35;;;18.70;99.90;;;;;;4944563;28;20046;-92
2023/04/13 11:17:19;;;;;;;24.13;16.17;;;18.60;99.90;;;;;;4945392;28;20447;-91
2023/04/13 11:19:58;;;;;;;23.23;15.02;;;18.30;99.90;;;;;;4961568;28;20034;-93
2023/04/13 11:22:27;;;;;;;22.58;15.20;;;18.40;99.90;;;;;;4944802;28;20031;-77
2023/04/13 11:28:20;;;;;;;;;;;19.10;99.90;;;;;;5078376;23;20059;-93
2023/04/13 11:30:55;;;;;;;22.88;16.30;;;18.90;99.90;;;;;;4902919;29;19911;-93
2023/04/13 11:33:25;;;;;;;22.92;16.48;;;19.00;99.90;;;;;;4902024;29;20043;-90
2023/04/13 11:36:00;;;;;;;19.25;17.13;;;19.10;99.90;;;;;;4915485;29;20036;-91
2023/04/13 11:38:27;;;;;;;18.63;16.75;;;19.10;99.90;;;;;;4923483;29;20432;-91
2023/04/13 11:41:01;;;;;;;19.08;16.58;;;19.30;99.90;;;;;;4925104;29;20106;-91
2023/04/13 11:43:37;;;;;;;19.73;16.88;;;19.20;99.90;;;;;;4927604;29;20031;-93
2023/04/13 11:46:04;;;;;;;19.52;16.80;;;19.30;99.90;;;;;;4968617;23;20051;-90
2023/04/13 11:48:31;;;;;;;18.45;16.65;;;19.40;99.90;;;;;;4926734;29;20055;-91
2023/04/13 11:50:59;;;;;;;21.35;17.00;;;19.40;99.90;;;;;;4921540;29;20036;-89
2023/04/13 11:53:25;;;;;;;19.73;17.42;;;19.20;99.90;;;;;;4904544;29;20051;-91
2023/04/13 11:55:52;;;;;;;25.00;16.65;;;18.90;99.90;;;;;;4926535;29;20038;-90
2023/04/13 11:58:20;;;;;;;25.90;17.67;;;18.90;99.90;;;;;;4904720;29;20031;-92
2023/04/13 12:00:48;;;;;;;21.05;17.13;;;18.70;99.90;;;;;;4904267;29;20032;-93
2023/04/13 12:03:18;;;;;;;26.00;17.27;;;18.80;99.90;;;;;;4920507;29;20035;-91
2023/04/13 12:05:46;;;;;;;26.33;18.60;;;19.00;99.90;;;;;;4920067;29;20040;-91
2023/04/13 12:08:22;;;;;;;25.63;16.55;;;19.10;99.90;;;;;;4904835;29;20050;-93
2023/04/13 12:11:15;;;;;;;23.98;17.30;;;18.90;99.90;;;;;;4919791;29;20031;-91
2023/04/13 12:13:43;;;;;;;25.27;17.38;;;19.10;99.90;;;;;;4933705;29;20036;-91
2023/04/13 12:16:22;;;;;;;21.25;17.33;;;18.90;99.90;;;;;;4920140;29;20477;-93
2023/04/13 12:18:48;;;;;;;28.95;17.85;;;18.50;99.90;;;;;;4921386;29;20059;-93
2023/04/13 12:21:16;;;;;;;18.48;16.55;;;18.50;99.90;;;;;;4904149;29;20110;-91
2023/04/13 12:23:54;;;;;;;22.02;17.13;;;18.50;99.90;;;;;;4904187;29;20401;-90
2023/04/13 12:26:32;;;;;;;18.98;16.75;;;18.50;99.90;;;;;;4904262;29;20553;-90
2023/04/13 12:29:01;;;;;;;25.52;17.10;;;18.90;99.90;;;;;;4920278;29;20039;-92
2023/04/13 12:31:36;;;;;;;23.63;16.52;;;18.90;99.90;;;;;;4904611;29;20031;-92
2023/04/13 12:34:06;;;;;;;23.70;16.85;;;18.80;99.90;;;;;;4920014;29;20038;-91
2023/04/13 12:36:35;;;;;;;23.65;17.98;;;18.80;99.90;;;;;;4906234;29;20397;-91
2023/04/13 12:39:03;;;;;;;24.50;17.33;;;18.80;99.90;;;;;;4921901;29;20094;-90
2023/04/13 12:41:29;;;;;;;27.65;18.27;;;19.10;99.90;;;;;;4907525;29;20027;-92
2023/04/13 12:43:56;;;;;;;19.23;17.30;;;18.90;99.90;;;;;;4923438;29;20186;-91
2023/04/13 12:46:23;;;;;;;22.25;16.98;;;19.10;99.90;;;;;;4907297;29;20024;-92
2023/04/13 12:48:51;;;;;;;25.27;18.80;;;19.20;99.90;;;;;;4923192;29;20039;-91
2023/04/13 12:51:17;;;;;;;19.42;17.20;;;18.80;99.90;;;;;;4919787;29;20067;-91
2023/04/13 12:53:44;;;;;;;26.60;17.35;;;18.60;99.90;;;;;;4919220;29;20068;-91
2023/04/13 12:56:10;;;;;;;21.38;16.40;;;18.60;99.90;;;;;;4903880;29;20111;-91
2023/04/13 12:58:36;;;;;;;26.83;17.70;;;18.60;99.90;;;;;;4919314;29;20028;-90
2023/04/13 13:01:03;;;;;;;26.67;17.20;;;18.40;99.90;;;;;;4918976;29;20048;-91
2023/04/13 13:03:29;;;;;;;24.60;17.40;;;18.30;99.90;;;;;;4919226;29;20036;-91
2023/04/13 13:05:56;;;;;;;22.35;16.17;;;18.30;99.90;;;;;;4918921;29;20028;-90
2023/04/13 13:08:23;;;;;;;23.42;17.02;;;18.40;99.90;;;;;;4903184;29;20036;-91
2023/04/13 13:10:49;;;;;;;24.52;17.02;;;18.40;99.90;;;;;;4919310;29;20054;-90
2023/04/13 13:13:17;;;;;;;25.83;17.13;;;18.40;99.90;;;;;;4918888;29;20172;-92
2023/04/13 13:15:43;;;;;;;24.00;16.73;;;18.50;99.90;;;;;;4919933;29;20195;-91
2023/04/13 13:18:10;;;;;;;26.48;17.50;;;18.80;99.90;;;;;;4918617;29;20036;-90
2023/04/13 13:20:40;;;;;;;21.55;16.60;;;18.50;99.90;;;;;;4919002;29;20030;-92
2023/04/13 13:23:13;;;;;;;18.95;16.85;;;18.30;99.90;;;;;;4918711;29;20044;-93
2023/04/13 13:25:41;;;;;;;33.53;17.90;;;18.10;99.90;;;;;;4934797;29;20167;-92
2023/04/13 13:28:08;;;;;;;25.67;16.67;;;18.10;99.90;;;;;;4923260;29;20059;-90
2023/04/13 13:30:35;;;;;;;27.63;16.85;;;18.20;99.90;;;;;;4938173;29;20044;-90
2023/04/13 13:33:05;;;;;;;21.92;16.77;;;18.30;99.90;;;;;;4938105;29;20039;-93
2023/04/13 13:35:42;;;;;;;21.70;16.33;;;18.40;99.90;;;;;;4938624;29;20059;-91
2023/04/13 13:38:08;;;;;;;26.83;17.00;;;18.30;99.90;;;;;;4940400;29;20042;-90
2023/04/13 13:40:34;;;;;;;24.60;15.82;;;17.80;99.90;;;;;;4938108;29;20032;-92
2023/04/13 13:43:03;;;;;;;27.58;15.00;;;17.80;99.90;;;;;;4937983;29;20396;-90
2023/04/13 13:45:29;;;;;;;22.88;15.70;;;17.90;99.90;;;;;;4937928;29;20134;-91
2023/04/13 13:47:59;;;;;;;32.75;14.77;;;17.70;99.90;;;;;;4937322;29;20386;-91
2023/04/13 13:50:44;;;;;;;26.58;14.60;;;17.70;99.90;;;;;;4934589;29;20039;-92
2023/04/13 13:53:12;;;;;;;27.67;15.18;;;17.60;99.90;;;;;;4937527;29;20482;-90
2023/04/13 13:55:41;;;;;;;22.98;14.50;;;17.80;99.90;;;;;;4937478;29;20181;-92
2023/04/13 13:58:07;;;;;;;34.70;14.80;;;17.80;99.90;;;;;;4951790;23;20065;-91
2023/04/13 14:00:36;;;;;;;28.75;14.77;;;17.90;99.90;;;;;;4940952;29;20055;-89
2023/04/13 14:03:06;;;;;;;30.98;14.48;;;17.90;99.90;;;;;;4941069;29;20043;-92
2023/04/13 14:05:32;;;;;;;26.98;14.35;;;17.90;99.90;;;;;;4943078;29;20072;-91
2023/04/13 14:07:59;;;;;;;19.48;13.82;;;17.70;99.90;;;;;;4940909;29;20090;-89
2023/04/13 14:10:25;;;;;;;28.30;14.77;;;17.60;99.90;;;;;;4956481;28;20082;-90
2023/04/13 14:12:53;;;;;;;22.17;13.98;;;17.50;99.90;;;;;;4957482;29;20093;-90
2023/04/13 14:15:20;;;;;;;25.40;13.25;;;17.50;99.90;;;;;;4956671;29;20031;-89
2023/04/13 14:17:46;;;;;;;27.15;14.25;;;17.60;99.90;;;;;;4956765;29;20477;-92
2023/04/13 14:20:14;;;;;;;25.13;13.55;;;17.60;99.90;;;;;;4956919;28;20088;-90
2023/04/13 14:22:41;;;;;;;29.42;13.48;;;17.70;99.90;;;;;;4956649;29;20027;-91
2023/04/13 14:25:08;;;;;;;24.25;12.85;;;17.60;99.90;;;;;;4956550;29;20043;-91
2023/04/13 14:27:35;;;;;;;26.90;12.52;;;17.30;99.90;;;;;;4940326;29;20030;-90
2023/04/13 14:30:03;;;;;;;23.80;12.35;;;17.10;99.90;;;;;;4956279;28;20076;-93
2023/04/13 14:32:29;;;;;;;32.45;12.85;;;17.00;99.90;;;;;;4940337;29;20019;-92
2023/04/13 14:34:58;;;;;;;26.70;12.88;;;16.90;99.90;;;;;;4956211;29;20114;-92
2023/04/13 14:37:28;;;;;;;26.13;11.52;;;16.90;99.90;;;;;;4940112;29;20050;-92
2023/04/13 14:39:55;;;;;;;33.25;11.45;;;17.00;99.90;;;;;;4940267;29;20488;-92
2023/04/13 14:42:23;;;;;;;29.23;12.98;;;17.00;99.90;;;;;;4956421;29;20070;-92
2023/04/13 14:44:50;;;;;;;32.75;12.25;;;17.00;99.90;;;;;;4940363;29;20035;-91
2023/04/13 14:47:18;;;;;;;30.73;12.10;;;17.20;99.90;;;;;;4956045;29;20404;-92
2023/04/13 14:49:51;;;;;;;26.10;11.95;;;17.30;99.90;;;;;;4955918;28;20062;-92
2023/04/13 14:52:18;;;;;;;22.93;12.20;;;17.20;99.90;;;;;;4956132;29;20051;-92
2023/04/13 14:54:44;;;;;;;25.48;12.13;;;16.90;99.90;;;;;;4955710;29;20102;-91
2023/04/13 14:57:11;;;;;;;38.90;15.48;;;16.70;99.90;;;;;;4958812;28;20118;-90
2023/04/13 14:59:37;;;;;;;25.92;12.10;;;16.60;99.90;;;;;;4959106;28;20034;-92
2023/04/13 15:02:07;;;;;;;34.85;11.40;;;16.60;99.90;;;;;;4958957;28;20034;-92
2023/04/13 15:04:35;;;;;;;27.98;11.82;;;16.40;99.90;;;;;;4942511;29;20073;-92
2023/04/13 15:07:03;;;;;;;34.17;11.23;;;16.50;99.90;;;;;;4941668;29;20035;-90
2023/04/13 15:09:29;;;;;;;29.55;11.70;;;16.50;99.90;;;;;;4942422;29;20150;-90
2023/04/13 15:11:55;;;;;;;32.53;11.32;;;16.40;99.90;;;;;;4939587;29;20035;-90
2023/04/13 15:14:22;;;;;;;24.50;10.73;;;16.40;99.90;;;;;;4939580;29;20028;-90
2023/04/13 15:16:48;;;;;;;24.85;11.07;;;16.40;99.90;;;;;;4939464;29;20042;-92
2023/04/13 15:19:14;;;;;;;26.95;11.13;;;16.30;99.90;;;;;;4939675;29;20034;-90
2023/04/13 15:21:41;;;;;;;38.38;11.93;;;16.50;99.90;;;;;;4939542;29;20058;-91
2023/04/13 15:24:09;;;;;;;27.10;10.80;;;16.40;99.90;;;;;;4939586;29;20061;-91
2023/04/13 15:26:40;;;;;;;29.13;11.40;;;16.40;99.90;;;;;;4939350;29;20042;-91
2023/04/13 15:29:07;;;;;;;31.75;11.43;;;16.30;99.90;;;;;;4939312;29;20564;-90
2023/04/13 15:31:38;;;;;;;30.73;11.00;;;16.30;99.90;;;;;;4939354;29;20110;-90
2023/04/13 15:34:07;;;;;;;44.03;13.93;;;16.10;99.90;;;;;;4939395;29;20035;-90
2023/04/13 15:36:35;;;;;;;26.85;10.38;;;16.10;99.90;;;;;;4939348;29;20027;-91
2023/04/13 15:39:03;;;;;;;25.38;10.75;;;16.10;99.90;;;;;;4939391;29;20039;-91
2023/04/13 15:41:32;;;;;;;33.40;10.82;;;16.10;99.90;;;;;;4939349;29;20024;-92
2023/04/13 15:44:00;;;;;;;34.58;12.02;;;16.10;99.90;;;;;;4939037;29;20488;-92
2023/04/13 15:46:27;;;;;;;29.90;11.27;;;16.10;99.90;;;;;;4939216;29;20039;-90
2023/04/13 15:48:54;;;;;;;29.58;12.77;;;16.00;99.90;;;;;;4939014;29;20038;-92
2023/04/13 15:51:22;;;;;;;28.60;12.30;;;16.00;99.90;;;;;;4939170;29;20027;-91